createdAt,value
2018-03-30T00:02:01.603Z,73.10
2018-03-30T00:04:29.239Z,72.90
2018-03-30T00:06:57.713Z,73.00
2018-03-30T00:12:27.157Z,73.10
2018-03-30T00:14:54.795Z,73.40
2018-03-30T00:17:22.368Z,73.50
2018-03-30T00:19:50.695Z,74.50
2018-03-30T00:22:18.376Z,74.50
2018-03-30T00:24:46.810Z,74.40
2018-03-30T00:27:14.369Z,74.30
2018-03-30T00:29:42.885Z,74.50
2018-03-30T00:32:12.080Z,74.60
2018-03-30T00:34:39.686Z,74.80
2018-03-30T00:37:07.810Z,74.40
2018-03-30T00:39:35.395Z,74.40
2018-03-30T00:42:02.999Z,74.40
2018-03-30T00:44:30.636Z,74.70
2018-03-30T00:46:58.702Z,74.30
2018-03-30T00:49:27.538Z,74.40
2018-03-30T00:51:58.925Z,74.60
2018-03-30T00:54:26.591Z,74.50
2018-03-30T00:56:55.205Z,74.30
2018-03-30T00:59:22.801Z,74.40
2018-03-30T01:01:50.358Z,74.10
2018-03-30T01:04:17.924Z,74.30
2018-03-30T01:06:45.607Z,74.10
2018-03-30T01:09:13.213Z,74.30
2018-03-30T01:11:40.781Z,74.40
2018-03-30T01:14:10.611Z,74.30
2018-03-30T01:16:39.023Z,74.80
2018-03-30T01:19:07.407Z,74.80
2018-03-30T01:21:35.745Z,75.20
2018-03-30T01:24:03.347Z,74.90
2018-03-30T01:26:32.062Z,75.20
2018-03-30T01:28:59.731Z,75.20
2018-03-30T01:31:27.930Z,74.80
2018-03-30T01:33:55.835Z,74.80
2018-03-30T01:36:26.001Z,74.80
2018-03-30T01:38:55.108Z,74.70
2018-03-30T01:41:26.519Z,74.60
2018-03-30T01:43:54.888Z,74.50
2018-03-30T01:46:28.566Z,74.20
2018-03-30T01:48:56.883Z,74.80
2018-03-30T01:51:24.431Z,74.80
2018-03-30T01:53:52.005Z,74.90
2018-03-30T01:56:20.383Z,75.10
2018-03-30T01:58:51.182Z,75.20
2018-03-30T02:01:18.789Z,75.30
2018-03-30T02:03:46.356Z,75.10
2018-03-30T02:06:13.882Z,75.10
2018-03-30T02:08:41.443Z,75.00
2018-03-30T02:11:09.833Z,74.70
2018-03-30T02:13:38.408Z,74.70
2018-03-30T02:16:07.750Z,74.50
2018-03-30T02:18:37.039Z,74.80
2018-03-30T02:21:04.640Z,74.80
2018-03-30T02:23:32.254Z,74.80
2018-03-30T02:25:59.816Z,75.00
2018-03-30T02:28:27.462Z,74.80
2018-03-30T02:30:55.081Z,74.80
2018-03-30T02:33:22.652Z,74.90
2018-03-30T02:35:50.260Z,75.50
2018-03-30T02:38:18.631Z,75.20
2018-03-30T02:40:46.190Z,75.20
2018-03-30T02:43:14.902Z,75.30
2018-03-30T02:45:43.215Z,75.30
2018-03-30T02:48:10.759Z,75.20
2018-03-30T02:50:39.249Z,75.70
2018-03-30T02:53:08.372Z,75.40
2018-03-30T02:55:37.880Z,75.50
2018-03-30T02:58:08.625Z,75.10
2018-03-30T03:00:36.755Z,75.30
2018-03-30T03:03:05.173Z,75.00
2018-03-30T03:05:32.728Z,75.00
2018-03-30T03:08:01.832Z,75.20
2018-03-30T03:10:33.916Z,75.50
2018-03-30T03:13:02.647Z,76.40
2018-03-30T03:15:30.230Z,76.40
2018-03-30T03:17:57.823Z,76.30
2018-03-30T03:20:25.408Z,76.50
2018-03-30T03:22:53.027Z,76.40
2018-03-30T03:25:20.594Z,76.60
2018-03-30T03:27:48.209Z,76.40
2018-03-30T03:30:15.792Z,75.90
2018-03-30T03:32:44.203Z,75.70
2018-03-30T03:35:11.833Z,75.60
2018-03-30T03:37:39.535Z,75.40
2018-03-30T03:40:08.845Z,75.40
2018-03-30T03:42:36.774Z,75.20
2018-03-30T03:45:04.366Z,74.70
2018-03-30T03:47:32.247Z,74.60
2018-03-30T03:49:59.875Z,74.40
2018-03-30T03:52:27.427Z,74.40
2018-03-30T03:54:55.049Z,74.10
2018-03-30T03:57:22.628Z,74.00
2018-03-30T03:59:50.277Z,73.80
2018-03-30T04:02:18.624Z,73.40
2018-03-30T04:04:46.410Z,73.30
2018-03-30T04:07:15.434Z,72.80
2018-03-30T04:09:43.006Z,72.90
2018-03-30T04:12:10.705Z,72.70
2018-03-30T04:14:38.257Z,71.90
2018-03-30T04:17:06.188Z,71.80
2018-03-30T04:19:35.155Z,71.60
2018-03-30T04:22:02.698Z,71.60
2018-03-30T04:24:31.211Z,71.60
2018-03-30T04:26:58.797Z,71.30
2018-03-30T04:29:26.491Z,71.70
2018-03-30T04:31:54.069Z,72.10
2018-03-30T04:34:21.604Z,72.30
2018-03-30T04:36:49.292Z,72.30
2018-03-30T04:39:16.841Z,72.60
2018-03-30T04:41:44.494Z,72.10
2018-03-30T04:44:12.059Z,72.20
2018-03-30T04:46:40.042Z,71.90
2018-03-30T04:49:07.658Z,72.30
2018-03-30T04:51:36.171Z,72.50
2018-03-30T04:54:04.008Z,72.40
2018-03-30T04:56:31.615Z,72.50
2018-03-30T04:59:00.022Z,73.00
2018-03-30T05:01:27.548Z,72.90
2018-03-30T05:03:55.124Z,73.10
2018-03-30T05:06:22.716Z,73.50
2018-03-30T05:08:51.123Z,73.80
2018-03-30T05:11:19.206Z,73.80
2018-03-30T05:13:47.600Z,73.30
2018-03-30T05:16:15.208Z,72.90
2018-03-30T05:18:42.898Z,72.20
2018-03-30T05:21:11.345Z,71.90
2018-03-30T05:23:38.944Z,72.00
2018-03-30T05:26:06.658Z,72.00
2018-03-30T05:28:34.851Z,72.50
2018-03-30T05:31:02.418Z,73.30
2018-03-30T05:33:29.958Z,72.30
2018-03-30T05:35:57.554Z,72.50
2018-03-30T05:38:25.948Z,74.10
2018-03-30T05:40:53.917Z,74.10
2018-03-30T05:43:21.510Z,74.50
2018-03-30T05:45:49.949Z,74.80
2018-03-30T05:48:17.617Z,74.80
2018-03-30T05:50:45.990Z,74.20
2018-03-30T05:53:13.627Z,74.10
2018-03-30T05:55:41.930Z,72.40
2018-03-30T05:58:09.506Z,72.50
2018-03-30T06:00:37.454Z,72.50
2018-03-30T06:03:06.115Z,73.00
2018-03-30T06:05:34.932Z,74.10
2018-03-30T06:08:02.633Z,74.80
2018-03-30T06:10:30.227Z,75.20
2018-03-30T06:12:57.773Z,75.60
2018-03-30T06:15:26.402Z,75.90
2018-03-30T06:17:54.006Z,76.00
2018-03-30T06:20:21.584Z,76.00
2018-03-30T06:22:49.170Z,76.10
2018-03-30T06:25:16.731Z,75.30
2018-03-30T06:27:45.246Z,75.10
2018-03-30T06:30:13.575Z,73.30
2018-03-30T06:32:41.164Z,73.20
2018-03-30T06:35:08.778Z,72.20
2018-03-30T06:37:36.384Z,71.20
2018-03-30T06:40:04.715Z,68.80
2018-03-30T06:42:32.312Z,66.50
2018-03-30T06:45:00.721Z,65.20
2018-03-30T06:47:28.379Z,65.20
2018-03-30T06:49:55.981Z,64.20
2018-03-30T06:52:24.375Z,63.80
2018-03-30T06:54:51.963Z,63.70
2018-03-30T06:57:19.605Z,63.50
2018-03-30T06:59:47.278Z,62.70
2018-03-30T07:02:15.713Z,61.50
2018-03-30T07:04:43.336Z,61.40
2018-03-30T07:07:10.934Z,61.20
2018-03-30T07:09:39.554Z,60.70
2018-03-30T07:12:07.221Z,60.40
2018-03-30T07:14:35.755Z,60.60
2018-03-30T07:17:06.206Z,60.30
2018-03-30T07:19:35.168Z,60.60
2018-03-30T07:22:03.969Z,60.40
2018-03-30T07:24:31.532Z,60.30
2018-03-30T07:26:59.153Z,58.70
2018-03-30T07:29:26.716Z,56.40
2018-03-30T07:31:54.359Z,55.20
2018-03-30T07:34:22.687Z,52.70
2018-03-30T07:36:50.869Z,52.70
2018-03-30T07:39:18.442Z,54.10
2018-03-30T07:41:46.777Z,57.70
2018-03-30T07:44:14.428Z,57.60
2018-03-30T07:46:41.980Z,58.50
2018-03-30T07:49:09.577Z,59.00
2018-03-30T07:51:37.158Z,59.50
2018-03-30T07:54:05.694Z,59.10
2018-03-30T07:56:33.305Z,58.90
2018-03-30T07:59:01.486Z,58.90
2018-03-30T08:01:29.142Z,58.00
2018-03-30T08:03:56.674Z,57.90
2018-03-30T08:06:24.348Z,58.20
2018-03-30T08:08:52.925Z,58.40
2018-03-30T08:11:20.545Z,58.20
2018-03-30T08:13:48.130Z,58.60
2018-03-30T08:16:16.519Z,57.80
2018-03-30T08:18:44.110Z,57.80
2018-03-30T08:21:11.656Z,56.30
2018-03-30T08:23:39.234Z,55.80
2018-03-30T08:26:07.536Z,56.60
2018-03-30T08:28:37.195Z,56.20
2018-03-30T08:31:07.718Z,55.70
2018-03-30T08:33:37.828Z,55.70
2018-03-30T08:36:05.945Z,55.50
2018-03-30T08:38:33.818Z,55.90
2018-03-30T08:41:01.362Z,56.70
2018-03-30T08:43:28.928Z,57.50
2018-03-30T08:45:57.218Z,57.70
2018-03-30T08:48:26.087Z,57.70
2018-03-30T08:50:54.386Z,56.90
2018-03-30T08:53:21.935Z,56.90
2018-03-30T08:55:49.500Z,58.50
2018-03-30T08:58:17.073Z,57.70
2018-03-30T09:00:44.638Z,57.60
2018-03-30T09:03:12.162Z,57.40
2018-03-30T09:05:40.570Z,57.20
2018-03-30T09:08:08.124Z,57.10
2018-03-30T09:10:35.645Z,57.60
2018-03-30T09:13:03.982Z,56.60
2018-03-30T09:15:31.593Z,56.50
2018-03-30T09:17:59.155Z,55.70
2018-03-30T09:20:26.712Z,55.10
2018-03-30T09:22:54.282Z,55.00
2018-03-30T09:25:21.845Z,54.60
2018-03-30T09:27:49.423Z,53.30
2018-03-30T09:30:16.987Z,51.20
2018-03-30T09:32:44.532Z,50.20
2018-03-30T09:35:12.151Z,50.00
2018-03-30T09:37:40.526Z,48.90
2018-03-30T09:40:08.857Z,48.60
2018-03-30T09:42:36.486Z,48.60
2018-03-30T09:45:04.235Z,47.80
2018-03-30T09:47:32.532Z,47.60
2018-03-30T09:50:00.071Z,47.60
2018-03-30T09:52:27.759Z,47.30
2018-03-30T09:54:55.296Z,47.80
2018-03-30T09:57:23.995Z,47.30
2018-03-30T09:59:52.653Z,48.50
2018-03-30T10:02:20.964Z,47.40
2018-03-30T10:04:54.067Z,47.30
2018-03-30T10:07:21.645Z,47.80
2018-03-30T10:09:49.205Z,47.80
2018-03-30T10:12:16.801Z,47.50
2018-03-30T10:14:44.335Z,47.30
2018-03-30T10:17:12.662Z,47.90
2018-03-30T10:19:40.262Z,47.80
2018-03-30T10:22:07.832Z,48.90
2018-03-30T10:24:36.132Z,47.80
2018-03-30T10:27:03.720Z,47.80
2018-03-30T10:29:31.319Z,48.40
2018-03-30T10:31:58.859Z,47.30
2018-03-30T10:34:26.456Z,46.70
2018-03-30T10:36:54.749Z,46.50
2018-03-30T10:39:22.306Z,46.40
2018-03-30T10:41:49.963Z,47.60
2018-03-30T10:44:17.536Z,47.50
2018-03-30T10:46:45.204Z,47.40
2018-03-30T10:49:12.730Z,46.40
2018-03-30T10:51:41.403Z,42.00
2018-03-30T10:54:08.951Z,41.90
2018-03-30T10:56:37.287Z,40.00
2018-03-30T10:59:05.824Z,40.00
2018-03-30T11:01:34.117Z,40.30
2018-03-30T11:04:01.662Z,40.20
2018-03-30T11:06:29.318Z,40.70
2018-03-30T11:08:56.870Z,41.50
2018-03-30T11:11:24.435Z,41.80
2018-03-30T11:13:53.734Z,39.20
2018-03-30T11:16:21.266Z,39.20
2018-03-30T11:18:48.825Z,39.40
2018-03-30T11:21:16.485Z,38.50
2018-03-30T11:23:44.115Z,37.20
2018-03-30T11:26:11.646Z,38.20
2018-03-30T11:28:40.179Z,38.80
2018-03-30T11:31:08.623Z,38.80
2018-03-30T11:33:36.264Z,38.70
2018-03-30T11:36:03.867Z,39.40
2018-03-30T11:38:31.482Z,40.40
2018-03-30T11:40:59.095Z,39.90
2018-03-30T11:43:26.648Z,40.70
2018-03-30T11:45:54.384Z,41.30
2018-03-30T11:48:22.890Z,41.80
2018-03-30T11:50:50.477Z,41.70
2018-03-30T11:53:18.807Z,42.70
2018-03-30T11:55:47.962Z,42.60
2018-03-30T11:58:16.527Z,41.80
2018-03-30T12:00:44.870Z,39.90
2018-03-30T12:03:12.462Z,39.90
2018-03-30T12:05:40.032Z,39.30
2018-03-30T12:08:08.699Z,39.40
2018-03-30T12:10:37.123Z,39.10
2018-03-30T12:13:05.666Z,39.10
2018-03-30T12:15:33.982Z,39.40
2018-03-30T12:18:01.596Z,39.40
2018-03-30T12:20:29.924Z,37.30
2018-03-30T12:22:58.807Z,37.20
2018-03-30T12:25:26.364Z,37.20
2018-03-30T12:27:54.041Z,36.60
2018-03-30T12:30:21.612Z,35.40
2018-03-30T12:32:49.248Z,34.90
2018-03-30T12:35:16.844Z,36.40
2018-03-30T12:37:44.440Z,36.40
2018-03-30T12:40:12.081Z,36.40
2018-03-30T12:42:39.663Z,36.00
2018-03-30T12:45:07.244Z,36.60
2018-03-30T12:47:34.774Z,37.30
2018-03-30T12:50:02.385Z,36.40
2018-03-30T12:52:31.002Z,36.60
2018-03-30T12:55:00.511Z,37.30
2018-03-30T12:57:28.834Z,37.20
2018-03-30T12:59:56.394Z,37.10
2018-03-30T13:02:24.154Z,37.80
2018-03-30T13:04:51.692Z,38.50
2018-03-30T13:07:19.847Z,38.00
2018-03-30T13:09:47.516Z,38.50
2018-03-30T13:12:15.069Z,38.30
2018-03-30T13:14:42.655Z,38.30
2018-03-30T13:17:10.336Z,38.80
2018-03-30T13:19:37.895Z,38.60
2018-03-30T13:22:05.505Z,39.40
2018-03-30T13:24:33.068Z,39.80
2018-03-30T13:27:00.676Z,39.90
2018-03-30T13:29:28.283Z,39.70
2018-03-30T13:31:55.842Z,40.60
2018-03-30T13:34:23.394Z,40.70
2018-03-30T13:36:50.970Z,41.40
2018-03-30T13:39:18.548Z,41.90
2018-03-30T13:41:46.163Z,42.30
2018-03-30T13:44:13.723Z,42.20
2018-03-30T13:46:42.022Z,42.80
2018-03-30T13:49:09.582Z,42.80
2018-03-30T13:51:55.997Z,43.60
2018-03-30T13:54:24.335Z,44.10
2018-03-30T13:56:54.116Z,44.80
2018-03-30T13:59:26.169Z,44.70
2018-03-30T14:01:56.242Z,44.30
2018-03-30T14:04:32.745Z,44.30
2018-03-30T14:07:01.239Z,44.90
2018-03-30T14:09:43.292Z,45.00
2018-03-30T14:12:12.477Z,45.50
2018-03-30T14:14:40.076Z,45.80
2018-03-30T14:17:24.517Z,45.50
2018-03-30T14:19:52.118Z,45.50
2018-03-30T14:22:22.486Z,46.00
2018-03-30T18:57:12.490Z,63.30
2018-03-30T18:59:40.345Z,63.10
2018-03-30T19:02:09.508Z,62.90
2018-03-30T19:04:36.872Z,63.10
2018-03-30T19:07:05.292Z,62.70
2018-03-30T19:09:32.767Z,62.70
2018-03-30T19:12:00.766Z,62.60
2018-03-30T19:14:28.927Z,62.50
2018-03-30T19:16:56.113Z,62.40
2018-03-30T19:19:23.452Z,62.30
2018-03-30T19:21:50.907Z,62.40
2018-03-30T19:24:18.193Z,62.40
2018-03-30T19:26:47.373Z,62.00
2018-03-30T19:29:15.408Z,62.00
2018-03-30T19:31:42.618Z,61.90
2018-03-30T19:34:10.159Z,62.10
2018-03-30T19:36:37.237Z,62.10
2018-03-30T19:39:04.683Z,62.30
2018-03-30T19:41:32.532Z,62.80
2018-03-30T19:44:00.368Z,63.20
2018-03-30T19:46:27.594Z,63.20
2018-03-30T19:48:56.650Z,63.60
2018-03-30T19:51:23.718Z,63.70
2018-03-30T19:53:51.689Z,63.70
2018-03-30T19:56:19.549Z,63.80
2018-03-30T19:58:47.494Z,63.80
2018-03-30T20:01:16.165Z,63.70
2018-03-30T20:03:45.022Z,63.80
2018-03-30T20:06:12.178Z,63.70
2018-03-30T20:08:40.847Z,63.90
2018-03-30T20:11:08.973Z,64.00
2018-03-30T20:13:36.114Z,64.00
2018-03-30T20:16:03.242Z,64.10
2018-03-30T20:18:31.303Z,63.30
2018-03-30T20:20:59.204Z,62.50
2018-03-30T20:23:26.334Z,62.50
2018-03-30T20:25:53.446Z,61.80
2018-03-30T20:28:20.570Z,61.80
2018-03-30T20:30:48.551Z,61.30
2018-03-30T20:33:16.042Z,61.30
2018-03-30T20:35:43.143Z,61.10
2018-03-30T20:38:12.217Z,61.00
2018-03-30T20:40:40.640Z,61.20
2018-03-30T20:43:07.759Z,61.20
2018-03-30T20:45:34.930Z,61.30
2018-03-30T20:48:02.064Z,61.10
2018-03-30T20:50:29.167Z,60.90
2018-03-30T20:52:56.312Z,61.00
2018-03-30T20:55:24.402Z,61.00
2018-03-30T20:57:51.464Z,61.60
2018-03-30T21:00:19.313Z,63.20
2018-03-30T21:02:46.471Z,63.20
2018-03-30T21:05:13.736Z,63.60
2018-03-30T21:07:40.869Z,64.20
2018-03-30T21:10:08.460Z,64.60
2018-03-30T21:12:36.701Z,65.00
2018-03-30T21:15:03.876Z,65.00
2018-03-30T21:17:30.970Z,65.10
2018-03-30T21:19:58.108Z,65.30
2018-03-30T21:22:26.234Z,65.50
2018-03-30T21:24:53.380Z,65.30
2018-03-30T21:27:20.665Z,66.30
2018-03-30T21:29:47.778Z,67.00
2018-03-30T21:32:15.640Z,67.40
2018-03-30T21:34:42.876Z,67.30
2018-03-30T21:37:11.054Z,67.80
2018-03-30T21:39:38.276Z,67.60
2018-03-30T21:42:06.197Z,68.00
2018-03-30T21:44:33.320Z,68.20
2018-03-30T21:47:01.522Z,68.70
2018-03-30T21:49:28.712Z,69.00
2018-03-30T21:51:55.882Z,69.50
2018-03-30T21:54:24.744Z,70.00
2018-03-30T21:56:51.815Z,69.90
2018-03-30T21:59:20.469Z,70.30
2018-03-30T22:01:47.715Z,70.30
2018-03-30T22:04:18.125Z,70.70
2018-03-30T22:06:45.642Z,70.70
2018-03-30T22:09:12.743Z,71.10
2018-03-30T22:11:40.594Z,69.70
2018-03-30T22:14:07.696Z,69.70
2018-03-30T22:16:34.887Z,69.30
2018-03-30T22:19:02.179Z,69.20
2018-03-30T22:21:29.251Z,69.20
2018-03-30T22:23:57.302Z,69.30
2018-03-30T22:26:25.168Z,69.20
2018-03-30T22:28:52.358Z,69.10
2018-03-30T22:31:19.648Z,69.00
2018-03-30T22:33:46.896Z,68.60
2018-03-30T22:36:14.769Z,68.80
2018-03-30T22:38:44.533Z,68.90
2018-03-30T22:41:11.662Z,68.60
2018-03-30T22:43:38.816Z,68.30
2018-03-30T22:46:05.999Z,68.20
2018-03-30T22:48:33.898Z,67.40
2018-03-30T22:51:01.989Z,67.40
2018-03-30T22:53:29.837Z,67.60
2018-03-30T22:55:56.946Z,67.60
2018-03-30T22:58:24.084Z,67.80
2018-03-30T23:00:52.455Z,69.00
2018-03-30T23:03:19.514Z,68.70
2018-03-30T23:05:47.332Z,68.80
2018-03-30T23:08:15.273Z,68.60
2018-03-30T23:10:42.356Z,68.70
2018-03-30T23:13:10.231Z,68.60
2018-03-30T23:15:37.410Z,68.60
2018-03-30T23:18:05.293Z,68.90
2018-03-30T23:20:32.528Z,68.80
2018-03-30T23:23:00.642Z,68.80
2018-03-30T23:25:28.801Z,69.10
2018-03-30T23:27:56.622Z,69.30
2018-03-30T23:30:23.727Z,69.20
2018-03-30T23:32:50.807Z,69.60
2018-03-30T23:35:18.257Z,69.40
2018-03-30T23:37:46.059Z,69.50
2018-03-30T23:40:13.123Z,69.60
2018-03-30T23:42:41.799Z,69.90
2018-03-30T23:45:08.864Z,69.80
2018-03-30T23:47:35.965Z,69.90
2018-03-30T23:50:03.171Z,70.20
2018-03-30T23:52:30.249Z,70.10
2018-03-30T23:54:58.226Z,69.80
2018-03-30T23:57:25.323Z,69.30
2018-03-30T23:59:52.382Z,68.60
